Time;durP1;ratioP1;P1;durP2;ratioP2;P2;SDS_P1;SDS_P2;PMS_P1;PMS_P2;Temp;Humidity;BMP_temperature;BMP_pressure;BME280_temperature;BME280_humidity;BME280_pressure;Samples;Min_cycle;Max_cycle;Signal;HPM_P1;HPM_P2
2021/10/28 00:13:56;;;;;;;68.63;34.78;;;5.30;91.00;;;;;;6279061;22;20011;-77
2021/10/28 00:16:30;;;;;;;77.60;36.67;;;5.60;89.90;;;;;;6279629;22;20000;-78
2021/10/28 00:19:03;;;;;;;78.10;36.63;;;5.70;90.10;;;;;;6278819;22;20023;-78
2021/10/28 00:21:37;;;;;;;64.75;34.97;;;5.80;89.80;;;;;;6252589;22;20301;-77
2021/10/28 00:24:08;;;;;;;66.15;33.47;;;5.80;90.40;;;;;;6252270;22;20031;-77
2021/10/28 00:26:36;;;;;;;69.18;35.05;;;5.80;90.20;;;;;;6251267;22;20003;-78
2021/10/28 00:29:09;;;;;;;66.68;34.70;;;5.90;90.30;;;;;;6252419;22;20008;-78
2021/10/28 00:31:38;;;;;;;77.28;35.67;;;5.90;90.60;;;;;;6279097;22;20015;-77
2021/10/28 00:34:07;;;;;;;73.95;34.20;;;5.90;90.30;;;;;;6279221;22;20008;-78
2021/10/28 00:36:34;;;;;;;65.28;34.17;;;5.90;89.90;;;;;;6279450;22;20319;-77
2021/10/28 00:39:00;;;;;;;68.88;34.63;;;5.90;90.10;;;;;;6279118;22;20031;-78
2021/10/28 00:41:25;;;;;;;70.43;36.70;;;5.90;90.20;;;;;;6279539;22;20312;-77
2021/10/28 00:43:57;;;;;;;56.42;31.23;;;5.90;90.40;;;;;;6254231;22;20008;-77
2021/10/28 00:46:27;;;;;;;57.60;30.23;;;5.90;90.50;;;;;;6280943;22;20006;-78
2021/10/28 00:48:53;;;;;;;64.50;32.22;;;5.90;90.50;;;;;;6280788;22;19999;-78
2021/10/28 00:51:23;;;;;;;60.22;32.20;;;5.90;90.60;;;;;;6281078;22;20325;-78
2021/10/28 00:53:50;;;;;;;65.18;33.60;;;5.80;90.80;;;;;;6280839;22;20000;-78
2021/10/28 00:56:17;;;;;;;56.50;31.33;;;5.80;91.00;;;;;;6279843;22;20000;-78
2021/10/28 00:58:43;;;;;;;60.20;31.40;;;5.80;90.80;;;;;;6280935;22;19999;-79
2021/10/28 01:01:09;;;;;;;57.10;30.85;;;5.80;90.90;;;;;;6280934;22;20007;-77
2021/10/28 01:03:36;;;;;;;52.67;30.05;;;5.80;91.50;;;;;;6253565;22;20003;-78
2021/10/28 01:06:04;;;;;;;60.50;31.95;;;5.70;91.40;;;;;;6280627;22;20283;-78
2021/10/28 01:08:31;;;;;;;57.40;30.77;;;5.60;91.90;;;;;;6280429;22;20312;-77
2021/10/28 01:10:57;;;;;;;56.33;29.98;;;5.60;91.70;;;;;;6252226;22;20004;-79
2021/10/28 01:13:24;;;;;;;56.08;31.23;;;5.50;91.40;;;;;;6280822;22;20011;-77
2021/10/28 01:15:53;;;;;;;57.47;30.17;;;5.50;90.80;;;;;;6253648;22;20377;-76
2021/10/28 01:18:19;;;;;;;50.28;27.88;;;5.50;91.60;;;;;;6253368;22;20000;-76
2021/10/28 01:20:48;;;;;;;56.78;29.08;;;5.50;91.50;;;;;;6280531;22;20010;-76
2021/10/28 01:23:16;;;;;;;48.25;27.92;;;5.50;91.30;;;;;;6253683;22;20443;-75
2021/10/28 01:25:59;;;;;;;60.85;30.85;;;5.40;91.70;;;;;;6280641;22;20000;-76
2021/10/28 01:28:28;;;;;;;59.60;31.17;;;5.50;89.80;;;;;;6253875;22;19999;-78
2021/10/28 01:30:56;;;;;;;60.78;31.60;;;5.60;90.00;;;;;;6253608;22;20046;-78
2021/10/28 01:33:23;;;;;;;60.83;32.45;;;5.60;90.10;;;;;;6280458;22;19999;-76
2021/10/28 01:35:49;;;;;;;58.40;30.23;;;5.70;90.40;;;;;;6253808;22;20427;-76
2021/10/28 01:38:16;;;;;;;56.83;29.33;;;5.60;90.80;;;;;;6253763;22;20000;-80
2021/10/28 01:40:43;;;;;;;53.25;29.05;;;5.60;90.50;;;;;;6280886;22;20008;-76
2021/10/28 01:43:09;;;;;;;56.03;29.88;;;5.60;90.80;;;;;;6278737;22;20031;-75
2021/10/28 01:45:35;;;;;;;50.60;28.92;;;5.60;91.10;;;;;;6279949;22;20000;-75
2021/10/28 01:48:02;;;;;;;48.67;28.77;;;5.70;91.60;;;;;;6280195;22;20177;-77
2021/10/28 01:50:31;;;;;;;47.35;26.95;;;5.60;92.20;;;;;;6279963;22;20032;-76
2021/10/28 01:52:58;;;;;;;51.10;28.38;;;5.60;92.70;;;;;;6279716;22;20000;-78
2021/10/28 01:55:24;;;;;;;42.78;25.10;;;5.50;92.70;;;;;;6280188;22;20315;-77
2021/10/28 01:57:52;;;;;;;47.95;26.55;;;5.50;92.60;;;;;;6278132;22;20026;-78
2021/10/28 02:00:23;;;;;;;45.45;25.60;;;5.50;92.80;;;;;;6253593;22;20019;-77
2021/10/28 02:02:51;;;;;;;40.60;24.45;;;5.40;93.10;;;;;;6280428;22;20004;-78
2021/10/28 02:05:19;;;;;;;41.42;24.02;;;5.40;93.40;;;;;;6253767;22;20003;-78
2021/10/28 02:07:46;;;;;;;39.03;23.52;;;5.30;93.50;;;;;;6280082;22;20381;-77
2021/10/28 02:10:13;;;;;;;43.00;23.35;;;5.20;93.20;;;;;;6280116;22;20546;-77
2021/10/28 02:12:39;;;;;;;41.35;23.90;;;5.20;92.90;;;;;;6279073;22;20008;-78
2021/10/28 02:15:07;;;;;;;39.05;22.85;;;5.20;92.90;;;;;;6280444;22;20003;-77
2021/10/28 02:17:33;;;;;;;36.88;21.42;;;5.20;93.30;;;;;;6279815;22;20000;-78
2021/10/28 02:19:59;;;;;;;34.30;21.30;;;5.30;92.40;;;;;;6280342;22;20003;-77
2021/10/28 02:22:25;;;;;;;41.13;22.48;;;5.30;92.50;;;;;;6280518;22;20068;-76
2021/10/28 02:24:51;;;;;;;39.35;22.25;;;5.40;92.80;;;;;;6280274;22;20002;-78
2021/10/28 02:27:17;;;;;;;40.33;23.05;;;5.40;93.20;;;;;;6251755;22;20255;-76
2021/10/28 02:29:43;;;;;;;36.92;21.63;;;5.40;93.70;;;;;;6252900;22;20031;-77
2021/10/28 02:32:09;;;;;;;36.22;21.30;;;5.30;94.70;;;;;;6253240;22;20008;-77
2021/10/28 02:34:36;;;;;;;39.05;21.27;;;5.10;95.10;;;;;;6279929;22;20073;-77
2021/10/28 02:37:03;;;;;;;34.83;21.48;;;5.10;94.00;;;;;;6253290;22;20269;-77
2021/10/28 02:39:29;;;;;;;35.17;20.70;;;5.10;94.30;;;;;;6279784;22;20589;-76
2021/10/28 02:41:55;;;;;;;34.10;20.85;;;5.10;94.70;;;;;;6278344;22;20032;-78
2021/10/28 02:44:21;;;;;;;36.33;20.98;;;4.90;95.00;;;;;;6277040;22;20094;-75
2021/10/28 02:46:47;;;;;;;36.10;20.52;;;4.80;94.90;;;;;;6279670;22;20526;-75
2021/10/28 02:49:14;;;;;;;33.30;20.45;;;4.70;93.80;;;;;;6277690;22;19996;-76
2021/10/28 02:51:40;;;;;;;33.60;19.35;;;4.90;93.30;;;;;;6279432;22;20067;-76
2021/10/28 02:54:06;;;;;;;31.42;19.17;;;4.90;93.80;;;;;;6279164;22;20041;-76
2021/10/28 02:56:32;;;;;;;38.60;22.05;;;4.90;93.60;;;;;;6277676;22;20633;-77
2021/10/28 02:58:58;;;;;;;32.47;19.90;;;4.90;94.20;;;;;;6252538;22;20004;-77
2021/10/28 03:01:24;;;;;;;33.97;20.73;;;4.90;93.80;;;;;;6252405;22;20399;-77
2021/10/28 03:03:50;;;;;;;33.67;19.10;;;5.00;93.30;;;;;;6252050;22;20003;-76
2021/10/28 03:06:16;;;;;;;33.33;19.27;;;5.00;93.30;;;;;;6279276;22;20415;-78
2021/10/28 03:08:42;;;;;;;34.22;20.45;;;4.90;94.20;;;;;;6279103;22;20047;-76
2021/10/28 03:11:08;;;;;;;35.33;20.85;;;4.90;94.10;;;;;;6277420;22;20076;-78
2021/10/28 03:13:35;;;;;;;34.83;19.83;;;4.70;94.50;;;;;;6279203;22;20134;-80
2021/10/28 03:16:13;;;;;;;33.08;20.15;;;4.60;93.30;;;;;;6278845;22;20004;-78
2021/10/28 03:27:09;;;;;;;30.73;19.00;;;4.70;93.10;;;;;;6221233;22;19996;-77
2021/10/28 03:29:35;;;;;;;30.52;18.40;;;4.80;92.60;;;;;;6279057;22;20257;-78
2021/10/28 03:32:00;;;;;;;29.65;18.27;;;4.80;92.90;;;;;;6279064;22;20308;-77
2021/10/28 03:34:26;;;;;;;31.08;18.48;;;4.80;92.20;;;;;;6279049;22;20003;-77
2021/10/28 03:37:15;;;;;;;32.78;19.30;;;4.90;92.70;;;;;;6278778;22;20000;-77
2021/10/28 04:29:25;;;;;;;36.20;20.27;;;4.90;93.10;;;;;;6280110;22;20450;-75
2021/10/28 04:31:50;;;;;;;36.53;21.10;;;5.00;93.30;;;;;;6253011;22;20011;-76
2021/10/28 04:34:20;;;;;;;38.75;21.73;;;4.90;94.10;;;;;;6252975;22;20014;-76
2021/10/28 04:36:46;;;;;;;39.17;22.13;;;4.90;94.00;;;;;;6279354;22;20007;-76
2021/10/28 04:39:12;;;;;;;34.92;21.10;;;4.90;94.00;;;;;;6279257;22;20415;-75
2021/10/28 04:41:39;;;;;;;30.40;19.67;;;4.90;94.00;;;;;;6276147;22;20008;-75
2021/10/28 04:44:08;;;;;;;40.53;21.55;;;4.80;94.10;;;;;;6251628;22;20036;-76
2021/10/28 04:46:33;;;;;;;37.30;21.70;;;4.90;93.40;;;;;;6279367;22;20008;-76
2021/10/28 04:48:59;;;;;;;36.15;21.05;;;4.90;94.00;;;;;;6279384;22;20004;-75
2021/10/28 04:51:25;;;;;;;38.03;21.17;;;4.90;93.90;;;;;;6252152;22;20006;-77
2021/10/28 04:53:51;;;;;;;35.83;21.58;;;4.90;94.10;;;;;;6279268;22;20004;-75
2021/10/28 04:56:16;;;;;;;38.92;21.50;;;4.90;94.30;;;;;;6278364;22;20007;-77
2021/10/28 04:58:43;;;;;;;38.13;21.02;;;4.80;94.50;;;;;;6253245;22;20300;-76
2021/10/28 05:01:09;;;;;;;39.83;22.83;;;4.80;94.50;;;;;;6280679;22;20324;-76
2021/10/28 05:03:35;;;;;;;41.75;22.13;;;4.70;94.40;;;;;;6280274;22;20034;-76
2021/10/28 05:06:01;;;;;;;41.45;24.45;;;4.70;94.20;;;;;;6280455;22;20008;-78
2021/10/28 05:08:27;;;;;;;48.67;24.77;;;4.70;93.50;;;;;;6280396;22;20258;-76
2021/10/28 05:10:52;;;;;;;41.53;23.05;;;4.80;92.50;;;;;;6279657;22;20003;-77
2021/10/28 05:13:18;;;;;;;46.67;24.70;;;4.80;93.80;;;;;;6280243;22;20464;-77
2021/10/28 05:15:46;;;;;;;45.50;25.45;;;4.70;94.10;;;;;;6280253;22;20067;-77
2021/10/28 05:18:12;;;;;;;48.63;25.58;;;4.80;92.30;;;;;;6280409;22;20003;-77
2021/10/28 05:20:39;;;;;;;54.83;27.65;;;4.90;92.40;;;;;;6253562;22;20039;-77
2021/10/28 05:23:05;;;;;;;40.63;24.55;;;5.00;92.60;;;;;;6280388;22;20030;-77
2021/10/28 05:25:32;;;;;;;46.60;25.58;;;5.00;92.90;;;;;;6280451;22;20077;-78
2021/10/28 05:27:59;;;;;;;47.72;25.40;;;5.00;93.30;;;;;;6278804;22;20000;-78
2021/10/28 05:30:25;;;;;;;54.22;28.02;;;5.00;93.00;;;;;;6253710;22;19999;-78
2021/10/28 05:32:51;;;;;;;51.17;26.80;;;5.10;92.30;;;;;;6253229;22;20034;-78
2021/10/28 05:35:17;;;;;;;46.20;25.13;;;5.10;93.50;;;;;;6253398;22;20004;-78
2021/10/28 05:37:44;;;;;;;50.33;26.75;;;5.10;93.40;;;;;;6280020;22;20010;-78
2021/10/28 05:40:11;;;;;;;51.47;27.60;;;5.10;93.20;;;;;;6253560;22;20004;-76
2021/10/28 05:42:42;;;;;;;52.60;28.40;;;5.20;93.20;;;;;;6278728;22;20265;-77
2021/10/28 05:45:08;;;;;;;51.65;29.55;;;5.30;92.70;;;;;;6279992;22;20403;-77
2021/10/28 05:47:33;;;;;;;53.15;27.77;;;5.30;93.50;;;;;;6279469;22;20030;-77
2021/10/28 05:50:00;;;;;;;47.47;26.27;;;5.30;93.60;;;;;;6280388;22;19996;-77
2021/10/28 05:52:25;;;;;;;48.90;26.48;;;5.30;93.40;;;;;;6280038;22;20010;-77
2021/10/28 05:54:51;;;;;;;48.42;24.70;;;5.40;93.70;;;;;;6279816;22;20039;-77
2021/10/28 05:57:17;;;;;;;45.58;25.08;;;5.30;94.30;;;;;;6278435;22;20003;-77
2021/10/28 05:59:43;;;;;;;46.28;25.08;;;5.30;94.50;;;;;;6279952;22;20122;-78
2021/10/28 06:02:08;;;;;;;43.97;25.10;;;5.30;94.30;;;;;;6253285;22;19999;-78
2021/10/28 06:04:34;;;;;;;47.30;26.38;;;5.10;94.70;;;;;;6279807;22;20004;-78
2021/10/28 06:06:59;;;;;;;48.15;27.02;;;5.20;94.10;;;;;;6280093;22;20007;-78
2021/10/28 06:09:25;;;;;;;55.15;28.58;;;5.20;93.90;;;;;;6279811;22;20441;-78
2021/10/28 06:11:51;;;;;;;51.22;27.45;;;5.30;93.30;;;;;;6278415;22;20007;-78
2021/10/28 06:14:22;;;;;;;52.28;26.83;;;5.50;93.20;;;;;;6280117;22;20003;-78
2021/10/28 06:16:53;;;;;;;52.75;27.58;;;5.50;94.00;;;;;;6279516;22;20003;-78
2021/10/28 06:19:19;;;;;;;56.25;29.48;;;5.60;93.80;;;;;;6280161;22;20004;-78
2021/10/28 06:21:45;;;;;;;54.22;27.30;;;5.70;93.90;;;;;;6252626;22;20014;-78
2021/10/28 06:24:11;;;;;;;55.75;27.88;;;5.70;94.60;;;;;;6280346;22;20061;-78
2021/10/28 06:26:36;;;;;;;55.72;28.30;;;5.70;95.00;;;;;;6278456;22;20427;-77
2021/10/28 06:29:02;;;;;;;53.55;29.02;;;5.70;95.00;;;;;;6279817;22;19996;-77
2021/10/28 06:31:28;;;;;;;54.95;28.17;;;5.80;95.00;;;;;;6252722;22;20023;-78
2021/10/28 06:34:00;;;;;;;48.92;26.70;;;5.80;95.70;;;;;;6280636;22;20520;-77
2021/10/28 06:36:26;;;;;;;50.30;26.42;;;5.80;95.50;;;;;;6280235;22;19996;-78
2021/10/28 06:38:52;;;;;;;47.97;25.95;;;5.80;95.80;;;;;;6280405;22;20261;-79
2021/10/28 06:41:18;;;;;;;48.85;26.58;;;5.80;95.90;;;;;;6279050;22;20023;-78
2021/10/28 06:43:43;;;;;;;48.05;25.98;;;5.80;96.30;;;;;;6280263;22;20034;-76
2021/10/28 06:46:09;;;;;;;49.72;26.50;;;5.90;96.50;;;;;;6280045;22;20053;-78
2021/10/28 06:48:35;;;;;;;48.38;25.67;;;5.80;96.30;;;;;;6280357;22;20006;-78
2021/10/28 06:51:01;;;;;;;46.70;25.77;;;5.80;96.60;;;;;;6280313;22;20007;-78
2021/10/28 06:53:44;;;;;;;43.17;24.75;;;5.80;96.40;;;;;;6280224;22;20007;-78
2021/10/28 07:04:22;;;;;;;43.33;23.80;;;5.90;96.70;;;;;;6219544;23;20305;-76
2021/10/28 07:06:49;;;;;;;47.97;24.98;;;6.00;96.50;;;;;;6218813;23;20032;-76
2021/10/28 07:09:21;;;;;;;47.88;24.40;;;6.10;96.60;;;;;;6219361;23;19996;-76
2021/10/28 07:11:54;;;;;;;43.47;23.20;;;6.30;97.10;;;;;;6218031;23;20004;-76
2021/10/28 07:14:20;;;;;;;43.72;24.05;;;6.40;97.50;;;;;;6219330;23;20236;-75
2021/10/28 07:38:47;;;;;;;34.00;19.95;;;7.20;98.00;;;;;;6218807;23;20012;-78
2021/10/28 08:14:27;;;;;;;;;;;12.40;91.10;;;;;;6280367;22;20438;-78
2021/10/28 08:17:09;;;;;;;30.02;18.08;;;11.40;93.10;;;;;;6279286;22;19899;-77
2021/10/28 08:22:06;;;;;;;28.75;16.17;;;11.20;95.70;;;;;;6290003;22;20011;-78
2021/10/28 08:29:52;;;;;;;;;;;14.70;89.90;;;;;;6280253;22;20006;-78
2021/10/28 08:32:18;;;;;;;24.03;13.60;;;15.60;85.50;;;;;;6279584;22;19903;-78
2021/10/28 08:34:45;;;;;;;21.65;13.75;;;16.10;84.80;;;;;;6279780;22;20061;-78
2021/10/28 08:37:15;;;;;;;21.77;13.40;;;16.10;84.00;;;;;;6252680;22;20011;-79
2021/10/28 08:39:44;;;;;;;21.65;13.75;;;16.70;87.60;;;;;;6279933;22;20289;-79
2021/10/28 08:42:12;;;;;;;19.90;12.45;;;16.70;80.60;;;;;;6277875;22;20270;-79
2021/10/28 08:44:41;;;;;;;19.17;12.75;;;17.50;87.20;;;;;;6279292;22;20027;-79
2021/10/28 08:47:08;;;;;;;20.17;13.48;;;17.80;79.40;;;;;;6279177;22;20003;-78
2021/10/28 08:49:40;;;;;;;18.90;12.65;;;17.90;78.10;;;;;;6252836;22;20004;-78
2021/10/28 09:25:37;;;;;;;18.73;11.30;;;16.80;77.70;;;;;;6280943;22;20043;-78
2021/10/28 09:28:21;;;;;;;18.02;11.15;;;17.30;76.10;;;;;;6279663;22;20365;-78
2021/10/28 09:30:50;;;;;;;17.60;11.27;;;17.20;76.50;;;;;;6281081;22;19996;-78
2021/10/28 09:33:25;;;;;;;18.35;12.18;;;16.90;76.50;;;;;;6280392;22;19999;-78
2021/10/28 09:36:17;;;;;;;18.88;12.02;;;17.40;75.80;;;;;;6280878;22;20369;-78
2021/10/28 09:44:45;;;;;;;;;;;17.40;76.50;;;;;;6281358;22;20103;-77
2021/10/28 09:48:21;;;;;;;20.50;14.07;;;17.40;77.30;;;;;;6280732;22;19903;-78
2021/10/28 09:50:25;;;;;;;19.05;11.80;;;17.00;78.50;;;;;;6264538;22;20318;-78
2021/10/28 09:58:27;;;;;;;19.63;11.63;;;17.40;76.70;;;;;;6280096;22;20000;-77
2021/10/28 10:00:53;;;;;;;22.77;13.60;;;17.60;76.80;;;;;;6280945;22;19999;-77
2021/10/28 10:03:25;;;;;;;18.05;11.95;;;17.30;76.60;;;;;;6253675;22;20007;-76
2021/10/28 10:06:26;;;;;;;21.15;13.48;;;17.30;76.50;;;;;;6280835;22;20004;-77
2021/10/28 10:08:43;;;;;;;20.08;12.00;;;17.20;77.40;;;;;;6277864;22;20003;-77
2021/10/28 10:11:10;;;;;;;18.40;12.13;;;17.10;78.20;;;;;;6279232;22;20004;-78
2021/10/28 10:13:37;;;;;;;17.52;12.20;;;17.20;77.10;;;;;;6279954;22;20067;-78
2021/10/28 10:16:04;;;;;;;16.52;10.40;;;17.10;77.00;;;;;;6279929;22;20011;-78
2021/10/28 10:18:33;;;;;;;18.85;11.90;;;17.70;74.90;;;;;;6280840;22;20007;-77
2021/10/28 10:21:27;;;;;;;21.27;12.38;;;18.20;75.60;;;;;;6280600;22;20007;-78
2021/10/28 12:01:46;;;;;;;6.63;3.63;;;19.40;68.20;;;;;;6280069;22;20438;-77
2021/10/28 12:22:04;;;;;;;5.75;3.05;;;19.10;68.40;;;;;;6279777;22;20015;-78
2021/10/28 12:27:59;;;;;;;6.03;2.92;;;19.60;67.90;;;;;;6278462;22;20069;-77
2021/10/28 12:44:19;;;;;;;9.35;4.20;;;19.80;67.30;;;;;;6281753;22;20022;-78
2021/10/28 13:48:12;;;;;;;6.45;3.15;;;17.70;73.20;;;;;;6281092;22;20015;-78
2021/10/28 13:49:17;;;;;;;6.63;3.40;;;17.90;71.30;;;;;;6280330;22;20057;-78
2021/10/28 13:51:50;;;;;;;5.78;3.22;;;17.70;71.90;;;;;;6280812;22;20054;-78
2021/10/28 14:21:45;;;;;;;5.43;2.70;;;17.80;73.60;;;;;;6291184;22;20014;-78
2021/10/28 14:34:47;;;;;;;4.88;2.40;;;18.50;69.90;;;;;;6290765;22;20008;-79
2021/10/28 15:28:58;;;;;;;7.20;2.47;;;18.60;72.80;;;;;;6279336;22;20402;-78
2021/10/28 15:34:29;;;;;;;;;;;17.60;76.50;;;;;;6280465;22;20011;-78
2021/10/28 15:37:10;;;;;;;4.07;1.95;;;17.20;76.80;;;;;;6279740;22;19899;-78
2021/10/28 16:24:12;;;;;;;5.40;2.25;;;10.70;96.40;;;;;;6279679;22;20018;-77
2021/10/28 16:26:38;;;;;;;6.80;2.63;;;10.60;96.60;;;;;;6278628;22;20079;-77
2021/10/28 16:29:07;;;;;;;5.60;2.80;;;10.60;96.70;;;;;;6279589;22;20203;-77
2021/10/28 16:31:35;;;;;;;5.75;2.80;;;10.50;97.10;;;;;;6278661;22;20046;-77
2021/10/28 16:34:02;;;;;;;5.95;2.60;;;10.40;97.20;;;;;;6252844;22;20004;-77
2021/10/28 16:36:27;;;;;;;10.00;2.95;;;10.30;97.40;;;;;;6279359;22;20369;-77
2021/10/28 16:38:54;;;;;;;7.90;3.00;;;10.10;97.60;;;;;;6279652;22;20022;-77
2021/10/28 16:41:20;;;;;;;13.48;5.07;;;10.00;97.80;;;;;;6251101;22;20110;-77
2021/10/28 16:43:46;;;;;;;6.60;3.75;;;9.90;98.00;;;;;;6252719;22;20394;-77
2021/10/28 16:46:12;;;;;;;8.93;3.58;;;9.80;98.00;;;;;;6279863;22;20285;-77
2021/10/28 16:48:37;;;;;;;6.03;2.95;;;9.70;98.00;;;;;;6279576;22;19995;-77
2021/10/28 16:51:04;;;;;;;6.03;3.22;;;9.60;98.00;;;;;;6279622;22;19996;-77
2021/10/28 16:53:31;;;;;;;8.05;3.00;;;9.60;98.00;;;;;;6279681;22;20078;-77
2021/10/28 16:55:58;;;;;;;8.10;3.05;;;9.50;98.00;;;;;;6277816;22;20602;-77
2021/10/28 16:58:23;;;;;;;8.43;3.10;;;9.40;98.00;;;;;;6279434;22;20027;-77
2021/10/28 17:00:50;;;;;;;5.97;3.38;;;9.40;98.00;;;;;;6279261;22;20015;-77
2021/10/28 17:03:16;;;;;;;8.25;3.70;;;9.30;98.00;;;;;;6279495;22;20011;-77
2021/10/28 17:05:43;;;;;;;7.63;3.40;;;9.20;98.00;;;;;;6279252;22;20292;-77
2021/10/28 17:08:09;;;;;;;9.20;4.00;;;9.20;98.00;;;;;;6278943;22;20411;-78
2021/10/28 17:10:35;;;;;;;7.97;3.85;;;9.20;98.00;;;;;;6279589;22;19996;-77
2021/10/28 17:13:01;;;;;;;9.00;4.50;;;9.20;98.00;;;;;;6277999;22;20246;-77
2021/10/28 17:15:26;;;;;;;6.15;3.70;;;9.20;98.00;;;;;;6252584;22;20319;-77
2021/10/28 17:17:52;;;;;;;7.20;3.78;;;9.10;98.00;;;;;;6279379;22;20071;-77
2021/10/28 17:20:19;;;;;;;9.93;4.13;;;9.10;98.00;;;;;;6279287;22;20003;-77
2021/10/28 17:22:45;;;;;;;8.02;4.10;;;9.10;98.00;;;;;;6280411;22;20326;-77
2021/10/28 17:25:18;;;;;;;7.63;3.60;;;9.00;98.00;;;;;;6254399;22;20027;-77
2021/10/28 17:27:46;;;;;;;6.63;3.55;;;9.00;98.00;;;;;;6279465;22;20305;-77
2021/10/28 17:30:13;;;;;;;9.02;3.70;;;9.00;98.00;;;;;;6254227;22;20273;-77
2021/10/28 17:32:41;;;;;;;7.68;3.97;;;8.90;98.00;;;;;;6280889;22;20004;-77
2021/10/28 17:35:08;;;;;;;10.80;4.25;;;9.00;98.00;;;;;;6281323;22;20307;-77
2021/10/28 17:37:34;;;;;;;8.07;4.63;;;8.90;98.00;;;;;;6254066;22;20034;-77
2021/10/28 17:40:00;;;;;;;9.40;4.25;;;8.90;98.00;;;;;;6281147;22;20023;-77
2021/10/28 17:42:26;;;;;;;7.85;4.25;;;8.90;98.00;;;;;;6279354;22;20074;-77
2021/10/28 17:44:59;;;;;;;8.50;4.45;;;8.90;98.00;;;;;;6279873;22;20027;-77
2021/10/28 17:47:25;;;;;;;6.72;4.15;;;9.00;98.00;;;;;;6280329;22;20023;-77
2021/10/28 17:49:52;;;;;;;7.75;4.25;;;9.00;98.00;;;;;;6281063;22;20243;-77
2021/10/28 17:52:18;;;;;;;9.10;4.10;;;8.90;98.00;;;;;;6280921;22;20308;-77
2021/10/28 17:54:45;;;;;;;9.10;4.70;;;8.80;98.00;;;;;;6279804;22;20008;-77
2021/10/28 17:57:12;;;;;;;10.40;5.22;;;8.80;98.00;;;;;;6276829;22;20033;-77
2021/10/28 17:59:38;;;;;;;9.50;5.65;;;8.90;98.00;;;;;;6281047;22;20389;-77
2021/10/28 18:02:04;;;;;;;11.48;6.18;;;8.80;98.00;;;;;;6280511;22;20007;-77
2021/10/28 18:04:30;;;;;;;13.80;9.00;;;8.80;98.00;;;;;;6254084;22;20090;-77
2021/10/28 18:06:56;;;;;;;12.60;7.28;;;8.70;98.00;;;;;;6253548;22;20000;-77
2021/10/28 18:09:23;;;;;;;11.32;6.65;;;8.70;98.00;;;;;;6280022;22;20022;-77
2021/10/28 18:11:51;;;;;;;11.52;5.97;;;8.50;98.00;;;;;;6277971;22;20007;-77
2021/10/28 18:14:18;;;;;;;13.00;6.40;;;8.50;98.00;;;;;;6279878;22;20003;-77
2021/10/28 18:16:47;;;;;;;12.48;6.43;;;8.60;98.00;;;;;;6279477;22;19996;-77
2021/10/28 18:19:13;;;;;;;12.13;6.63;;;8.60;98.00;;;;;;6252713;22;20030;-77
2021/10/28 18:21:42;;;;;;;12.57;7.20;;;8.70;98.00;;;;;;6253906;22;20000;-78
2021/10/28 18:24:09;;;;;;;11.57;6.95;;;8.70;98.00;;;;;;6280714;22;20026;-77
2021/10/28 18:26:35;;;;;;;12.00;7.28;;;8.80;98.00;;;;;;6278685;22;19995;-77
2021/10/28 18:29:01;;;;;;;13.23;7.60;;;8.80;98.00;;;;;;6280197;22;20409;-76
2021/10/28 18:31:28;;;;;;;12.77;8.02;;;8.70;98.00;;;;;;6280458;22;20258;-76
2021/10/28 18:33:58;;;;;;;16.10;7.75;;;8.70;98.00;;;;;;6280128;22;20057;-77
2021/10/28 18:36:25;;;;;;;13.27;7.35;;;8.60;98.00;;;;;;6280515;22;20010;-77
2021/10/28 18:38:52;;;;;;;10.50;6.88;;;8.60;98.00;;;;;;6253550;22;20022;-77
2021/10/28 18:41:19;;;;;;;13.63;7.50;;;8.50;98.00;;;;;;6277641;22;19999;-76
2021/10/28 18:43:48;;;;;;;14.50;7.60;;;8.50;98.00;;;;;;6253248;22;20015;-76
2021/10/28 18:46:18;;;;;;;16.20;8.88;;;8.50;98.00;;;;;;6280491;22;20000;-76
2021/10/28 18:48:44;;;;;;;15.88;8.90;;;8.50;98.00;;;;;;6280068;22;19995;-76
2021/10/28 18:51:10;;;;;;;16.40;9.52;;;8.60;98.00;;;;;;6280511;22;20007;-76
2021/10/28 18:53:40;;;;;;;16.02;8.57;;;8.50;98.00;;;;;;6280445;22;20046;-76
2021/10/28 18:56:06;;;;;;;16.10;9.45;;;8.60;98.00;;;;;;6278468;22;20016;-76
2021/10/28 18:58:32;;;;;;;17.38;11.15;;;8.50;98.00;;;;;;6280273;22;20361;-76
2021/10/28 19:00:58;;;;;;;18.60;10.55;;;8.60;98.00;;;;;;6253492;22;20003;-76
2021/10/28 19:03:23;;;;;;;19.55;11.35;;;8.60;98.00;;;;;;6253560;22;20004;-76
2021/10/28 19:05:55;;;;;;;21.38;11.48;;;8.60;98.00;;;;;;6280031;22;20000;-76
2021/10/28 19:08:24;;;;;;;18.63;12.05;;;8.60;98.00;;;;;;6280054;22;20004;-76
2021/10/28 19:10:53;;;;;;;19.15;11.30;;;8.70;98.00;;;;;;6251001;22;20104;-77
2021/10/28 19:13:19;;;;;;;22.92;12.23;;;8.80;98.00;;;;;;6253063;22;20447;-77
2021/10/28 19:15:44;;;;;;;22.30;12.82;;;8.90;98.00;;;;;;6253170;22;20008;-77
2021/10/28 19:18:11;;;;;;;26.33;13.40;;;9.00;98.00;;;;;;6279784;22;20129;-77
2021/10/28 19:20:37;;;;;;;24.73;13.68;;;8.90;98.00;;;;;;6253019;22;20011;-77
2021/10/28 19:23:05;;;;;;;24.00;13.90;;;8.90;98.00;;;;;;6279532;22;20008;-76
2021/10/28 19:25:31;;;;;;;22.55;14.35;;;8.90;98.00;;;;;;6278655;22;20003;-77
2021/10/28 19:27:58;;;;;;;25.27;14.18;;;8.80;98.00;;;;;;6278551;22;20381;-77
2021/10/28 19:32:52;;;;;;;22.08;11.73;;;8.70;98.00;;;;;;6290736;22;20049;-76
2021/10/28 19:35:22;;;;;;;23.05;11.85;;;8.80;98.00;;;;;;6252189;22;20004;-76
2021/10/28 19:38:14;;;;;;;27.48;12.40;;;8.60;98.00;;;;;;6279128;22;20004;-76
2021/10/28 19:46:21;;;;;;;;;;;8.20;98.00;;;;;;6280089;22;20110;-76
2021/10/28 19:48:48;;;;;;;20.90;11.27;;;8.10;98.00;;;;;;6275592;22;19903;-76
2021/10/28 19:51:15;;;;;;;17.60;9.52;;;8.10;98.00;;;;;;6252170;22;20247;-76
2021/10/28 19:53:42;;;;;;;19.55;10.10;;;8.20;98.00;;;;;;6249608;22;20013;-76
2021/10/28 19:56:11;;;;;;;14.98;8.77;;;8.20;98.00;;;;;;6276546;22;20250;-76
2021/10/28 19:58:39;;;;;;;14.88;7.80;;;8.10;98.00;;;;;;6278285;22;20010;-76
2021/10/28 20:20:18;;;;;;;16.67;9.18;;;8.70;98.00;;;;;;6278721;22;20010;-76
2021/10/28 20:22:46;;;;;;;16.00;8.57;;;8.60;98.00;;;;;;6278248;22;20038;-76
2021/10/28 20:25:18;;;;;;;15.02;8.68;;;8.50;98.00;;;;;;6274985;22;20034;-76
2021/10/28 20:27:49;;;;;;;16.02;9.57;;;8.60;98.00;;;;;;6246532;22;20007;-76
2021/10/28 20:30:17;;;;;;;19.85;9.63;;;8.60;98.00;;;;;;6274831;22;20371;-76
2021/10/28 20:32:44;;;;;;;18.08;9.48;;;8.50;98.00;;;;;;6247678;22;20003;-76
2021/10/28 20:37:57;;;;;;;16.00;9.07;;;8.50;98.00;;;;;;6230113;22;20003;-76
2021/10/28 20:40:23;;;;;;;18.60;9.82;;;8.40;98.00;;;;;;6251607;22;20053;-76
2021/10/28 20:42:50;;;;;;;15.35;8.75;;;8.30;98.00;;;;;;6274113;22;20308;-76
2021/10/28 20:45:26;;;;;;;16.90;9.35;;;8.30;98.00;;;;;;6279053;22;20000;-77
2021/10/28 20:47:53;;;;;;;15.40;9.15;;;8.20;98.00;;;;;;6273948;22;20002;-77
2021/10/28 20:50:21;;;;;;;20.35;9.40;;;8.20;98.00;;;;;;6273998;22;20377;-77
2021/10/28 20:52:47;;;;;;;17.35;9.23;;;8.10;98.00;;;;;;6274922;22;20003;-76
2021/10/28 20:55:13;;;;;;;15.27;8.73;;;8.00;98.00;;;;;;6274082;22;20671;-77
2021/10/28 20:57:40;;;;;;;15.57;8.02;;;7.90;98.00;;;;;;6274669;22;20004;-76
2021/10/28 21:00:09;;;;;;;16.23;8.65;;;7.90;98.00;;;;;;6249623;22;20349;-76
2021/10/28 21:02:36;;;;;;;12.90;6.78;;;7.80;98.00;;;;;;6277922;22;20339;-78
2021/10/28 21:05:09;;;;;;;15.10;7.82;;;7.90;98.00;;;;;;6279771;22;20052;-76
2021/10/28 21:07:35;;;;;;;16.88;9.68;;;8.30;98.00;;;;;;6276229;22;20023;-77
2021/10/28 21:10:01;;;;;;;20.38;12.00;;;8.50;98.00;;;;;;6249706;22;19999;-76
2021/10/28 21:12:26;;;;;;;23.73;13.82;;;8.70;98.00;;;;;;6276709;22;20070;-75
2021/10/28 21:14:52;;;;;;;22.65;13.60;;;9.10;98.00;;;;;;6276880;22;20077;-76
2021/10/28 21:17:17;;;;;;;25.98;13.73;;;9.30;98.00;;;;;;6249673;22;20065;-77
2021/10/28 21:19:43;;;;;;;22.75;14.15;;;9.50;98.00;;;;;;6277934;22;20089;-77
2021/10/28 21:22:09;;;;;;;23.90;14.68;;;9.60;98.00;;;;;;6278493;22;20227;-76
2021/10/28 21:24:38;;;;;;;28.23;14.85;;;9.80;98.00;;;;;;6276745;22;20023;-77
2021/10/28 21:27:04;;;;;;;24.23;14.60;;;9.90;98.00;;;;;;6274345;22;20007;-76
2021/10/28 21:29:30;;;;;;;22.15;13.32;;;10.00;98.00;;;;;;6275016;22;20004;-76
2021/10/28 21:31:55;;;;;;;23.77;14.63;;;9.70;98.00;;;;;;6277911;22;20105;-76
2021/10/28 21:34:21;;;;;;;26.02;14.80;;;9.40;98.00;;;;;;6277669;22;19996;-77
2021/10/28 21:36:47;;;;;;;28.00;16.42;;;9.10;98.00;;;;;;6251739;22;20003;-76
2021/10/28 21:39:12;;;;;;;29.15;16.60;;;9.20;98.00;;;;;;6280020;22;20014;-76
2021/10/28 21:41:38;;;;;;;25.90;14.48;;;9.20;98.00;;;;;;6278164;22;20050;-76
2021/10/28 21:44:04;;;;;;;26.52;16.27;;;9.00;98.00;;;;;;6251481;22;20012;-76
2021/10/28 21:46:34;;;;;;;27.35;15.32;;;8.80;98.00;;;;;;6275486;22;20312;-76
2021/10/28 21:49:00;;;;;;;27.40;16.45;;;8.80;98.00;;;;;;6277724;22;20011;-77
2021/10/28 21:51:27;;;;;;;28.73;16.63;;;8.90;98.00;;;;;;6253590;22;20004;-77